Stockertown, Pennsylvania
Current Conditions -  °F | °C
As of 10:51 AM on Saturday 20 Dec 2014 (Local Time) from KABE Reporting Station
Overcast Overcast  
Wind Chill: 33°   Ceiling: 2800
Heat Index: 33°   Visibility: 10mi
Dew Point: 20°   Wind: 0mph
Humidity: 59%   Direction: NA
Pressure: 30.29"   Gusts: NA
Location:  40.75°N, 75.26°W
Report Text: KABE 201551Z 00000KT 10SM OVC028 01/M07 A3029 RMK AO2 SLP260 T00061067
Loading
Personal Weather Stations






























Interactive Weather Map New forecast layout! Learn more

10-Day Weather Forecast

Advertisements
Track Severe Weather on mobile